Chili, WI (54420)

4:27 PM CDT on August 02, 2015 (GMT -0500)
Marshfield Municipal | | Change Station
CLOSE
Current Station
Airport
Location: Marshfield,
Elevation: 1276 ft
Nearby Weather Stations

Elev 1276 ft 44.64 °N, 90.19 °W | Updated 33 minutes ago

Partly Cloudy
Partly Cloudy
82 °F
Feels Like 84 °F
N
18
Wind Variable Wind from NW
Gusts 33 mph

Today
High -- | Low -- °F
--% Chance of Precip.
Yesterday
High -- | Low -- °F
Precip. -- in
5:48 AM 8:25 PM
Waning Gibbous, 92% visible
Pressure 29.59 in
Visibility 10.0 miles
Clouds Few 3300 ft
Scattered Clouds 5000 ft
Heat Index 84 °F
Dew Point 66 °F
Humidity 58%
Rainfall 0.28 in
Snow Depth Not available.
UV 5 out of 12
Pollen 6.50 out of 12
Air Quality Not available.
Flu Activity Not available.
METAR KMFI 022054Z AUTO 31016G29KT 10SM FEW033 SCT050 28/19 A2961 RMK AO2 PK WND 30030/2041 LTG DSNT NE AND SE TSE08 SLP019 P0001 60028 T02780189 53006

More Conditions Fewer Conditions

Pressure 29.59 in
Visibility 10.0 miles
Clouds Few 3300 ft
Scattered Clouds 5000 ft
Heat Index 84 °F
Dew Point 66 °F
Humidity 58%
Rainfall 0.28 in
Snow Depth Not available.
UV 5 out of 12
Pollen 6.50 out of 12
Air Quality Not available.
Flu Activity Not available.
METAR KMFI 022054Z AUTO 31016G29KT 10SM FEW033 SCT050 28/19 A2961 RMK AO2 PK WND 30030/2041 LTG DSNT NE AND SE TSE08 SLP019 P0001 60028 T02780189 53006

More Conditions Fewer Conditions

10-Day Weather Forecast

×

Almanac

Astronomy

Aug. 02, 2015 Rise Set
Actual Time
Civil Twilight
Nautical Twilight
Astronomical Twilight
Moon
Length of Visible Light
Length of Day
Tomorrow will be .
, % of the Moon is Illuminated

Today's Extremes

State Highs State Lows

Community

WunderPhotos

Upload Photos

1,843,366 photos uploaded!

WunderBlogs® & News

Nearby

Air Quality

  Air Quality AQ Index Pollutant
Not available.

Snow Depth

Station Depth Elevation

Earthquake Activity

City Distance Mag. Time & Date
Minimum magnitude displayed is 2.5.

Coastal Water Temperatures

Place Temperature

Stations

Nearby Weather Stations

Station Location Temp. Windchill Dew Point Humidity Wind Precip. Elev Updated Type